createdAt,value
2018-10-18T00:02:06.959Z,16.90
2018-10-18T00:04:35.702Z,15.17
2018-10-18T00:07:04.551Z,19.27
2018-10-18T00:09:33.199Z,13.53
2018-10-18T00:12:01.820Z,14.60
2018-10-18T00:14:30.540Z,16.50
2018-10-18T00:16:59.077Z,16.73
2018-10-18T00:19:27.685Z,20.23
2018-10-18T00:21:56.228Z,14.73
2018-10-18T00:24:24.788Z,14.77
2018-10-18T00:26:53.364Z,14.20
2018-10-18T00:29:21.989Z,14.80
2018-10-18T00:31:50.585Z,22.23
2018-10-18T00:34:19.093Z,19.63
2018-10-18T00:36:47.776Z,20.97
2018-10-18T00:39:16.399Z,14.07
2018-10-18T00:41:45.280Z,14.70
2018-10-18T00:44:13.996Z,16.90
2018-10-18T00:46:42.560Z,23.97
2018-10-18T00:49:11.148Z,16.07
2018-10-18T00:51:39.694Z,15.80
2018-10-18T00:54:08.744Z,22.53
2018-10-18T00:56:37.348Z,14.07
2018-10-18T00:59:05.956Z,18.60
2018-10-18T01:01:34.487Z,24.60
2018-10-18T01:04:03.161Z,16.90
2018-10-18T01:06:31.972Z,18.60
2018-10-18T01:09:00.528Z,16.13
2018-10-18T01:11:29.152Z,20.33
2018-10-18T01:13:57.982Z,13.33
2018-10-18T01:16:26.572Z,13.83
2018-10-18T01:18:55.085Z,14.87
2018-10-18T01:21:23.774Z,17.30
2018-10-18T01:23:52.628Z,19.63
2018-10-18T01:26:21.153Z,24.07
2018-10-18T01:28:49.979Z,14.40
2018-10-18T01:31:18.651Z,16.63
2018-10-18T01:33:47.225Z,17.57
2018-10-18T01:36:16.013Z,19.50
2018-10-18T01:38:44.519Z,13.70
2018-10-18T01:41:13.084Z,14.50
2018-10-18T01:43:41.838Z,19.27
2018-10-18T01:46:10.792Z,16.00
2018-10-18T01:48:39.345Z,20.67
2018-10-18T01:51:08.054Z,17.37
2018-10-18T01:53:36.732Z,15.63
2018-10-18T01:56:05.724Z,14.27
2018-10-18T01:58:34.452Z,16.23
2018-10-18T02:01:03.010Z,16.87
2018-10-18T02:03:31.588Z,15.33
2018-10-18T02:06:00.350Z,19.03
2018-10-18T02:08:29.040Z,14.17
2018-10-18T02:10:57.624Z,19.73
2018-10-18T02:13:26.338Z,16.60
2018-10-18T02:15:55.251Z,14.13
2018-10-18T02:18:24.185Z,14.43
2018-10-18T02:20:53.152Z,16.47
2018-10-18T02:23:21.689Z,13.37
2018-10-18T02:25:50.208Z,20.47
2018-10-18T02:28:18.895Z,14.10
2018-10-18T02:30:47.501Z,17.17
2018-10-18T02:33:16.097Z,14.63
2018-10-18T02:35:44.844Z,14.70
2018-10-18T02:38:13.421Z,17.13
2018-10-18T02:40:42.039Z,13.27
2018-10-18T02:43:10.881Z,17.90
2018-10-18T02:45:39.628Z,14.70
2018-10-18T02:48:08.245Z,18.00
2018-10-18T02:50:36.765Z,17.40
2018-10-18T02:53:05.485Z,17.47
2018-10-18T02:55:34.064Z,26.40
2018-10-18T02:58:02.710Z,13.93
2018-10-18T03:00:31.319Z,17.10
2018-10-18T03:02:59.908Z,16.73
2018-10-18T03:05:28.710Z,20.47
2018-10-18T03:07:57.483Z,16.00
2018-10-18T03:10:26.010Z,17.17
2018-10-18T03:12:54.708Z,19.90
2018-10-18T03:15:23.249Z,20.30
2018-10-18T03:17:51.866Z,15.57
2018-10-18T03:20:20.524Z,15.93
2018-10-18T03:22:49.161Z,27.63
2018-10-18T03:25:17.732Z,17.73
2018-10-18T03:27:46.412Z,14.27
2018-10-18T03:30:15.170Z,19.67
2018-10-18T03:32:43.617Z,16.27
2018-10-18T03:35:12.242Z,15.43
2018-10-18T03:37:41.037Z,24.50
2018-10-18T03:40:10.268Z,18.87
2018-10-18T03:42:38.860Z,20.23
2018-10-18T03:45:07.869Z,18.07
2018-10-18T03:47:36.413Z,16.47
2018-10-18T03:50:05.093Z,20.07
2018-10-18T03:52:33.736Z,18.10
2018-10-18T03:55:02.317Z,21.23
2018-10-18T03:57:30.969Z,17.87
2018-10-18T03:59:59.531Z,15.53
2018-10-18T04:02:28.121Z,16.20
2018-10-18T04:04:56.752Z,17.00
2018-10-18T04:07:25.372Z,17.00
2018-10-18T04:09:53.929Z,19.53
2018-10-18T04:12:22.631Z,15.27
2018-10-18T04:14:51.190Z,16.10
2018-10-18T04:17:19.813Z,20.63
2018-10-18T04:19:48.557Z,20.20
2018-10-18T04:22:17.145Z,20.10
2018-10-18T04:24:45.761Z,20.80
2018-10-18T04:27:14.628Z,18.37
2018-10-18T04:29:43.194Z,17.10
2018-10-18T04:32:11.752Z,19.83
2018-10-18T04:34:40.418Z,21.67
2018-10-18T04:37:09.065Z,27.00
2018-10-18T04:39:37.568Z,25.10
2018-10-18T04:42:06.568Z,26.43
2018-10-18T04:44:35.182Z,18.10
2018-10-18T04:47:03.789Z,15.43
2018-10-18T04:49:32.505Z,18.20
2018-10-18T04:52:01.229Z,22.13
2018-10-18T04:54:29.760Z,21.93
2018-10-18T04:56:58.560Z,21.20
2018-10-18T04:59:27.288Z,20.87
2018-10-18T05:01:55.849Z,22.03
2018-10-18T05:04:24.465Z,16.90
2018-10-18T05:06:53.076Z,18.37
2018-10-18T05:09:21.729Z,18.20
2018-10-18T05:11:50.372Z,15.23
2018-10-18T05:14:18.987Z,24.63
2018-10-18T05:16:47.678Z,17.17
2018-10-18T05:19:16.609Z,19.77
2018-10-18T05:21:45.250Z,18.10
2018-10-18T05:24:13.849Z,15.17
2018-10-18T05:26:42.600Z,15.33
2018-10-18T05:29:11.248Z,20.60
2018-10-18T05:31:39.856Z,23.87
2018-10-18T05:34:08.584Z,19.17
2018-10-18T05:36:37.133Z,20.73
2018-10-18T05:39:09.725Z,23.20
2018-10-18T05:41:38.319Z,19.20
2018-10-18T05:44:06.948Z,16.40
2018-10-18T05:46:35.691Z,17.60
2018-10-18T05:49:04.326Z,19.67
2018-10-18T05:51:32.840Z,16.60
2018-10-18T05:54:01.709Z,16.30
2018-10-18T05:56:30.188Z,23.67
2018-10-18T05:58:58.812Z,16.47
2018-10-18T06:01:27.373Z,22.77
2018-10-18T06:03:55.980Z,21.00
2018-10-18T06:06:24.800Z,27.50
2018-10-18T06:08:53.615Z,23.20
2018-10-18T06:11:27.760Z,26.77
2018-10-18T06:13:56.570Z,24.97
2018-10-18T06:16:26.152Z,19.83
2018-10-18T06:18:54.803Z,29.70
2018-10-18T06:21:24.299Z,34.43
2018-10-18T06:23:52.892Z,25.53
2018-10-18T06:26:21.660Z,22.83
2018-10-18T06:28:51.441Z,32.40
2018-10-18T06:31:19.973Z,25.77
2018-10-18T06:33:49.172Z,26.90
2018-10-18T06:36:17.716Z,28.23
2018-10-18T06:38:46.373Z,33.50
2018-10-18T06:41:15.005Z,26.10
2018-10-18T06:43:43.696Z,22.50
2018-10-18T06:46:13.916Z,24.57
2018-10-18T06:48:42.956Z,32.90
2018-10-18T06:51:11.952Z,27.80
2018-10-18T06:53:41.545Z,32.07
2018-10-18T06:56:10.274Z,37.03
2018-10-18T06:58:38.988Z,35.20
2018-10-18T07:01:07.576Z,26.47
2018-10-18T07:03:36.168Z,27.70
2018-10-18T07:06:05.092Z,28.67
2018-10-18T07:08:33.635Z,32.70
2018-10-18T07:11:02.432Z,29.87
2018-10-18T07:13:30.908Z,41.37
2018-10-18T07:15:59.628Z,29.30
2018-10-18T07:18:28.215Z,31.97
2018-10-18T07:20:56.872Z,35.90
2018-10-18T07:23:25.403Z,61.33
2018-10-18T07:25:54.152Z,35.77
2018-10-18T07:28:22.885Z,30.40
2018-10-18T07:30:51.494Z,37.27
2018-10-18T07:33:20.457Z,38.73
2018-10-18T07:35:49.072Z,42.13
2018-10-18T07:38:17.616Z,36.23
2018-10-18T07:40:46.448Z,46.00
2018-10-18T07:43:15.009Z,48.60
2018-10-18T07:45:43.760Z,50.37
2018-10-18T07:48:12.629Z,53.63
2018-10-18T07:50:41.321Z,59.47
2018-10-18T07:53:10.006Z,62.77
2018-10-18T07:55:38.527Z,63.10
2018-10-18T07:58:07.354Z,69.50
2018-10-18T08:00:36.128Z,89.10
2018-10-18T08:03:05.082Z,74.37
2018-10-18T08:05:33.717Z,88.37
2018-10-18T08:08:02.353Z,82.30
2018-10-18T08:10:31.028Z,73.97
2018-10-18T08:12:59.627Z,70.00
2018-10-18T08:15:28.198Z,72.27
2018-10-18T08:17:56.834Z,82.97
2018-10-18T08:20:25.440Z,111.30
2018-10-18T08:22:54.206Z,77.27
2018-10-18T08:25:22.829Z,120.23
2018-10-18T08:27:51.398Z,114.20
2018-10-18T08:30:20.001Z,119.20
2018-10-18T08:32:48.637Z,121.83
2018-10-18T08:35:17.282Z,116.60
2018-10-18T08:37:45.918Z,117.73
2018-10-18T08:40:14.619Z,89.13
2018-10-18T08:42:43.165Z,108.83
2018-10-18T08:45:12.492Z,85.53
2018-10-18T08:47:41.220Z,85.77
2018-10-18T08:50:11.690Z,86.83
2018-10-18T08:52:40.580Z,85.17
2018-10-18T08:55:11.985Z,90.60
2018-10-18T08:57:40.510Z,79.07
2018-10-18T09:00:10.702Z,73.27
2018-10-18T09:02:39.850Z,78.37
2018-10-18T09:05:09.072Z,72.03
2018-10-18T09:07:38.189Z,86.60
2018-10-18T09:10:07.952Z,70.07
2018-10-18T09:12:37.097Z,76.73
2018-10-18T09:15:07.173Z,70.77
2018-10-18T09:17:36.209Z,71.30
2018-10-18T09:20:05.353Z,63.33
2018-10-18T09:22:34.568Z,66.33
2018-10-18T09:25:03.301Z,53.87
2018-10-18T09:27:31.892Z,57.60
2018-10-18T09:30:00.500Z,66.20
2018-10-18T09:32:29.148Z,59.70
2018-10-18T09:34:57.876Z,61.07
2018-10-18T09:37:26.468Z,70.00
2018-10-18T09:39:55.125Z,69.83
2018-10-18T09:42:23.664Z,53.57
2018-10-18T09:44:52.415Z,60.13
2018-10-18T09:47:20.940Z,54.33
2018-10-18T09:49:49.605Z,64.33
2018-10-18T09:52:18.180Z,53.00
2018-10-18T09:54:46.809Z,49.80
2018-10-18T09:57:15.365Z,50.67
2018-10-18T09:59:44.430Z,50.50
2018-10-18T10:02:18.233Z,53.60
2018-10-18T10:04:46.869Z,60.17
2018-10-18T10:07:15.492Z,52.90
2018-10-18T10:09:43.984Z,62.07
2018-10-18T10:12:12.750Z,55.87
2018-10-18T10:14:41.488Z,54.17
2018-10-18T10:17:10.224Z,44.63
2018-10-18T10:19:38.761Z,50.13
2018-10-18T10:22:07.512Z,46.97
2018-10-18T10:24:36.100Z,52.17
2018-10-18T10:27:04.733Z,48.97
2018-10-18T10:29:33.304Z,53.80
2018-10-18T10:32:01.869Z,56.10
2018-10-18T10:34:30.940Z,54.20
2018-10-18T10:36:59.629Z,45.93
2018-10-18T10:39:28.230Z,50.80
2018-10-18T10:41:56.928Z,55.80
2018-10-18T10:44:25.460Z,52.27
2018-10-18T10:46:54.040Z,51.30
2018-10-18T10:49:23.125Z,54.10
2018-10-18T10:51:51.915Z,57.47
2018-10-18T10:54:20.496Z,51.97
2018-10-18T10:56:49.240Z,55.67
2018-10-18T10:59:19.217Z,51.47
2018-10-18T11:01:48.004Z,73.37
2018-10-18T11:04:16.650Z,53.73
2018-10-18T11:06:45.349Z,56.57
2018-10-18T11:09:14.013Z,60.30
2018-10-18T11:11:42.941Z,51.17
2018-10-18T11:14:11.620Z,44.93
2018-10-18T11:16:40.221Z,51.63
2018-10-18T11:19:09.032Z,56.20
2018-10-18T11:21:37.644Z,63.67
2018-10-18T11:24:06.367Z,46.03
2018-10-18T11:26:34.946Z,56.70
2018-10-18T11:29:03.615Z,52.27
2018-10-18T11:31:32.161Z,45.57
2018-10-18T11:34:01.016Z,43.90
2018-10-18T11:36:29.724Z,48.83
2018-10-18T11:38:58.270Z,48.37
2018-10-18T11:41:27.455Z,46.67
2018-10-18T11:43:56.012Z,47.07
2018-10-18T11:46:24.665Z,49.50
2018-10-18T11:48:53.805Z,49.07
2018-10-18T11:51:22.523Z,47.87
2018-10-18T11:53:51.133Z,47.30
2018-10-18T11:56:19.713Z,45.77
2018-10-18T11:58:48.320Z,40.40
2018-10-18T12:01:17.112Z,48.07
2018-10-18T12:03:46.007Z,46.07
2018-10-18T12:06:14.605Z,39.50
2018-10-18T12:08:43.161Z,39.20
2018-10-18T12:11:11.963Z,45.93
2018-10-18T12:13:41.322Z,47.50
2018-10-18T12:16:10.297Z,44.53
2018-10-18T12:18:38.953Z,39.40
2018-10-18T12:21:07.685Z,47.07
2018-10-18T12:23:36.348Z,42.97
2018-10-18T12:26:05.337Z,45.27
2018-10-18T12:28:34.253Z,36.30
2018-10-18T12:31:03.064Z,38.40
2018-10-18T12:33:31.956Z,43.67
2018-10-18T12:36:00.522Z,48.23
2018-10-18T12:38:29.317Z,42.40
2018-10-18T12:40:58.285Z,35.30
2018-10-18T12:43:26.793Z,33.00
2018-10-18T12:45:55.465Z,38.70
2018-10-18T12:48:33.847Z,33.37
2018-10-18T12:51:02.317Z,43.03
2018-10-18T12:53:31.032Z,38.97
2018-10-18T12:56:00.035Z,31.97
2018-10-18T12:58:28.643Z,45.00
2018-10-18T13:00:57.294Z,41.60
2018-10-18T13:03:26.057Z,45.00
2018-10-18T13:05:54.679Z,40.00
2018-10-18T13:08:23.230Z,64.67
2018-10-18T13:10:52.069Z,58.47
2018-10-18T13:13:20.652Z,38.83
2018-10-18T13:15:49.334Z,33.30
2018-10-18T13:18:18.849Z,33.20
2018-10-18T13:20:47.448Z,29.10
2018-10-18T13:23:16.113Z,33.00
2018-10-18T13:25:44.876Z,32.50
2018-10-18T13:28:13.557Z,33.77
2018-10-18T13:30:42.209Z,40.83
2018-10-18T13:33:10.997Z,36.80
2018-10-18T13:35:39.647Z,40.93
2018-10-18T13:38:08.320Z,38.47
2018-10-18T13:40:37.276Z,30.83
2018-10-18T13:43:06.048Z,37.83
2018-10-18T13:45:34.693Z,39.90
2018-10-18T13:48:03.737Z,36.87
2018-10-18T13:50:32.376Z,32.60
2018-10-18T13:53:01.369Z,33.97
2018-10-18T13:55:30.140Z,35.47
2018-10-18T13:57:58.722Z,45.67
2018-10-18T14:00:30.253Z,36.50
2018-10-18T14:02:58.959Z,39.20
2018-10-18T14:05:28.088Z,43.50
2018-10-18T14:07:57.312Z,43.70
2018-10-18T14:13:06.078Z,36.67
2018-10-18T14:15:34.863Z,44.63
2018-10-18T14:18:03.498Z,41.43
2018-10-18T14:20:33.179Z,46.43
2018-10-18T14:23:02.017Z,42.40
2018-10-18T14:25:30.628Z,51.10
2018-10-18T14:27:59.209Z,45.33
2018-10-18T14:30:27.968Z,44.37
2018-10-18T14:32:56.640Z,52.17
2018-10-18T14:35:25.364Z,48.20
2018-10-18T14:37:54.072Z,49.23
2018-10-18T14:40:22.702Z,52.03
2018-10-18T14:42:51.440Z,43.20
2018-10-18T14:45:20.111Z,47.37
2018-10-18T14:47:48.830Z,56.80
2018-10-18T14:50:17.644Z,41.70
2018-10-18T14:52:46.285Z,45.50
2018-10-18T14:55:14.964Z,44.90
2018-10-18T14:57:43.652Z,43.33
2018-10-18T15:00:13.425Z,51.77
2018-10-18T15:02:42.222Z,42.83
2018-10-18T15:05:11.850Z,44.80
2018-10-18T15:07:41.052Z,43.53
2018-10-18T15:10:13.181Z,55.27
2018-10-18T15:12:42.290Z,49.17
2018-10-18T15:15:12.304Z,46.33
2018-10-18T15:17:41.112Z,47.63
2018-10-18T15:20:10.765Z,42.67
2018-10-18T15:22:40.741Z,54.87
2018-10-18T15:25:10.492Z,44.23
2018-10-18T15:27:40.232Z,45.77
2018-10-18T15:30:09.835Z,47.50
2018-10-18T15:32:39.192Z,40.07
2018-10-18T15:35:09.309Z,43.47
2018-10-18T15:37:45.843Z,46.30
2018-10-18T15:40:14.468Z,62.20
2018-10-18T15:42:43.126Z,53.30
2018-10-18T15:45:11.858Z,53.53
2018-10-18T15:47:40.558Z,51.93
2018-10-18T15:50:10.856Z,61.50
2018-10-18T15:52:39.417Z,52.23
2018-10-18T15:55:08.657Z,61.43
2018-10-18T15:57:37.305Z,59.93
2018-10-18T16:00:08.107Z,56.23
2018-10-18T16:02:36.742Z,49.27
2018-10-18T16:05:05.892Z,59.70
2018-10-18T16:07:34.662Z,62.03
2018-10-18T16:10:03.514Z,72.60
2018-10-18T16:12:32.159Z,56.50
2018-10-18T16:15:00.853Z,62.90
2018-10-18T16:17:29.462Z,55.67
2018-10-18T16:19:58.081Z,58.10
2018-10-18T16:22:26.719Z,62.47
2018-10-18T16:24:55.285Z,61.17
2018-10-18T16:27:24.813Z,60.47
2018-10-18T16:29:53.396Z,59.03
2018-10-18T16:32:22.013Z,60.33
2018-10-18T16:34:50.724Z,55.00
2018-10-18T16:37:19.537Z,62.30
2018-10-18T16:39:48.061Z,52.30
2018-10-18T16:42:16.701Z,55.03
2018-10-18T16:44:45.413Z,58.83
2018-10-18T16:47:14.061Z,62.73
2018-10-18T16:49:42.703Z,61.00
2018-10-18T16:52:11.592Z,63.03
2018-10-18T16:54:40.336Z,68.13
2018-10-18T16:57:08.945Z,70.70
2018-10-18T16:59:37.682Z,64.90
2018-10-18T17:02:06.682Z,62.03
2018-10-18T17:04:35.379Z,57.17
2018-10-18T17:07:04.124Z,67.37
2018-10-18T17:09:32.668Z,67.13
2018-10-18T17:12:01.444Z,72.90
2018-10-18T17:14:30.249Z,70.50
2018-10-18T17:16:58.877Z,75.83
2018-10-18T17:19:27.490Z,68.90
2018-10-18T17:21:56.138Z,70.87
2018-10-18T17:24:24.703Z,69.97
2018-10-18T17:26:53.308Z,77.60
2018-10-18T17:29:21.993Z,89.97
2018-10-18T17:31:50.556Z,86.23
2018-10-18T17:34:19.607Z,84.87
2018-10-18T17:36:48.162Z,79.07
2018-10-18T17:39:20.342Z,95.40
2018-10-18T17:41:48.992Z,81.50
2018-10-18T17:44:17.638Z,84.43
2018-10-18T17:46:46.285Z,89.13
2018-10-18T17:49:15.017Z,82.23
2018-10-18T17:51:43.591Z,82.20
2018-10-18T17:54:12.169Z,80.40
2018-10-18T17:56:40.820Z,87.67
2018-10-18T17:59:09.423Z,82.80
2018-10-18T18:01:38.025Z,84.47
2018-10-18T18:04:07.224Z,81.60
2018-10-18T18:06:35.921Z,90.23
2018-10-18T18:09:05.066Z,77.13
2018-10-18T18:11:33.913Z,74.43
2018-10-18T18:14:02.756Z,73.07
2018-10-18T18:16:31.780Z,75.27
2018-10-18T18:19:01.012Z,87.77
2018-10-18T18:21:29.574Z,92.10
2018-10-18T18:23:58.172Z,79.43
2018-10-18T18:26:32.657Z,77.10
2018-10-18T18:28:55.585Z,79.43
2018-10-18T18:31:24.418Z,81.47
2018-10-18T18:33:53.233Z,84.50
2018-10-18T18:36:22.190Z,74.83
2018-10-18T18:38:50.846Z,78.20
2018-10-18T18:41:19.624Z,85.50
2018-10-18T18:43:48.228Z,79.43
2018-10-18T18:46:16.792Z,81.37
2018-10-18T18:48:45.571Z,76.73
2018-10-18T18:51:14.220Z,67.90
2018-10-18T18:53:42.740Z,81.90
2018-10-18T18:56:11.603Z,82.27
2018-10-18T18:58:40.189Z,90.47
2018-10-18T19:01:08.904Z,83.67
2018-10-18T19:03:37.727Z,88.90
2018-10-18T19:06:06.380Z,94.87
2018-10-18T19:08:34.949Z,98.30
2018-10-18T19:11:03.799Z,86.73
2018-10-18T19:13:32.428Z,88.03
2018-10-18T19:16:01.100Z,91.83
2018-10-18T19:18:29.909Z,90.07
2018-10-18T19:20:58.528Z,84.37
2018-10-18T19:23:27.292Z,74.97
2018-10-18T19:25:56.049Z,91.43
2018-10-18T19:28:24.669Z,79.13
2018-10-18T19:30:53.657Z,86.73
2018-10-18T19:33:22.249Z,85.43
2018-10-18T19:35:51.047Z,81.53
2018-10-18T19:38:19.786Z,64.80
2018-10-18T19:40:51.360Z,84.10
2018-10-18T19:43:19.932Z,81.73
2018-10-18T19:45:48.704Z,90.40
2018-10-18T19:48:17.750Z,96.57
2018-10-18T19:50:46.417Z,75.27
2018-10-18T19:53:14.997Z,65.50
2018-10-18T19:55:43.941Z,79.10
2018-10-18T19:58:12.554Z,76.07
2018-10-18T20:00:41.132Z,73.97
2018-10-18T20:03:09.849Z,56.67
2018-10-18T20:05:38.372Z,71.03
2018-10-18T20:08:07.002Z,68.87
2018-10-18T20:10:35.712Z,68.50
2018-10-18T20:13:04.489Z,85.03
2018-10-18T20:15:33.064Z,64.40
2018-10-18T20:18:02.089Z,69.13
2018-10-18T20:20:30.672Z,60.83
2018-10-18T20:22:59.268Z,56.03
2018-10-18T20:25:28.038Z,68.80
2018-10-18T20:27:56.645Z,58.70
2018-10-18T20:30:25.261Z,74.73
2018-10-18T20:32:53.945Z,72.10
2018-10-18T20:35:22.574Z,71.37
2018-10-18T20:37:51.104Z,74.13
2018-10-18T20:40:19.905Z,66.27
2018-10-18T20:42:48.656Z,70.47
2018-10-18T20:45:22.594Z,72.33
2018-10-18T20:47:51.316Z,58.83
2018-10-18T20:50:19.784Z,59.77
2018-10-18T20:52:48.521Z,66.67
2018-10-18T20:55:17.078Z,64.47
2018-10-18T20:57:45.709Z,60.07
2018-10-18T21:00:14.446Z,60.10
2018-10-18T21:02:43.088Z,50.37
2018-10-18T21:05:11.692Z,56.03
2018-10-18T21:07:40.413Z,60.30
2018-10-18T21:10:11.889Z,59.33
2018-10-18T21:12:40.440Z,53.80
2018-10-18T21:15:09.131Z,59.73
2018-10-18T21:17:37.605Z,41.30
2018-10-18T21:20:06.617Z,49.70
2018-10-18T21:22:35.444Z,47.93
2018-10-18T21:25:04.344Z,46.43
2018-10-18T21:27:33.192Z,43.73
2018-10-18T21:30:01.848Z,47.57
2018-10-18T21:32:30.424Z,45.17
2018-10-18T21:34:59.287Z,49.83
2018-10-18T21:37:27.838Z,45.30
2018-10-18T21:39:56.482Z,45.00
2018-10-18T21:42:25.172Z,50.60
2018-10-18T21:44:54.485Z,48.67
2018-10-18T21:47:23.592Z,56.43
2018-10-18T21:49:52.485Z,46.07
2018-10-18T21:52:21.133Z,44.67
2018-10-18T21:54:49.736Z,49.60
2018-10-18T21:57:18.477Z,48.93
2018-10-18T21:59:47.166Z,40.83
2018-10-18T22:02:15.748Z,51.03
2018-10-18T22:04:44.484Z,47.67
2018-10-18T22:07:13.073Z,47.40
2018-10-18T22:09:41.654Z,44.17
2018-10-18T22:12:10.290Z,47.17
2018-10-18T22:14:38.906Z,56.20
2018-10-18T22:17:07.516Z,48.43
2018-10-18T22:19:36.370Z,49.93
2018-10-18T22:22:05.124Z,51.23
2018-10-18T22:24:33.728Z,50.77
2018-10-18T22:27:02.554Z,44.60
2018-10-18T22:29:31.120Z,53.50
2018-10-18T22:31:59.702Z,46.53
2018-10-18T22:34:28.441Z,48.77
2018-10-18T22:36:56.997Z,52.83
2018-10-18T22:39:25.625Z,44.80
2018-10-18T22:41:54.448Z,49.33
2018-10-18T22:44:22.984Z,44.13
2018-10-18T22:46:51.600Z,53.97
2018-10-18T22:49:20.429Z,53.40
2018-10-18T22:51:48.980Z,62.70
2018-10-18T22:54:17.541Z,50.40
2018-10-18T22:56:46.230Z,54.80
2018-10-18T22:59:14.813Z,59.17
2018-10-18T23:01:43.596Z,56.83
2018-10-18T23:04:12.160Z,49.93
2018-10-18T23:06:40.776Z,32.03
2018-10-18T23:09:11.638Z,31.50
2018-10-18T23:11:40.257Z,41.63
2018-10-18T23:14:09.849Z,38.93
2018-10-18T23:16:39.179Z,51.47
2018-10-18T23:19:08.857Z,49.90
2018-10-18T23:21:37.409Z,47.43
2018-10-18T23:24:06.341Z,46.67
2018-10-18T23:26:34.921Z,49.00
2018-10-18T23:29:03.494Z,52.00
2018-10-18T23:31:32.081Z,42.77
2018-10-18T23:34:00.649Z,51.40
2018-10-18T23:36:29.256Z,48.53
2018-10-18T23:38:57.902Z,49.53
2018-10-18T23:41:26.514Z,53.30
2018-10-18T23:43:55.201Z,49.33
2018-10-18T23:46:23.841Z,56.87
2018-10-18T23:48:52.488Z,57.80
2018-10-18T23:51:21.025Z,49.53
2018-10-18T23:53:49.685Z,55.80
2018-10-18T23:56:18.446Z,49.63
2018-10-18T23:58:47.049Z,58.53
